sensor_id;sensor_type;location;lat;lon;timestamp;P1;durP1;ratioP1;P2;durP2;ratioP2
49854;SDS011;35752;52.164;21.244;2023-03-25T00:00:55;12.13;;;10.57;;
49854;SDS011;35752;52.164;21.244;2023-03-25T00:03:27;15.90;;;10.77;;
49854;SDS011;35752;52.164;21.244;2023-03-25T00:08:21;12.27;;;9.80;;
49854;SDS011;35752;52.164;21.244;2023-03-25T00:10:52;12.48;;;9.90;;
49854;SDS011;35752;52.164;21.244;2023-03-25T00:13:19;12.05;;;8.68;;
49854;SDS011;35752;52.164;21.244;2023-03-25T00:15:45;10.88;;;9.15;;
49854;SDS011;35752;52.164;21.244;2023-03-25T00:18:12;12.13;;;8.30;;
49854;SDS011;35752;52.164;21.244;2023-03-25T00:20:38;11.60;;;8.73;;
49854;SDS011;35752;52.164;21.244;2023-03-25T00:23:05;11.55;;;8.30;;
49854;SDS011;35752;52.164;21.244;2023-03-25T00:25:31;11.43;;;8.73;;
49854;SDS011;35752;52.164;21.244;2023-03-25T00:27:57;11.85;;;8.25;;
49854;SDS011;35752;52.164;21.244;2023-03-25T00:30:23;12.70;;;8.30;;
49854;SDS011;35752;52.164;21.244;2023-03-25T00:32:49;11.07;;;8.75;;
49854;SDS011;35752;52.164;21.244;2023-03-25T00:35:16;13.50;;;8.98;;
49854;SDS011;35752;52.164;21.244;2023-03-25T00:37:43;9.07;;;7.43;;
49854;SDS011;35752;52.164;21.244;2023-03-25T00:40:10;9.52;;;7.97;;
49854;SDS011;35752;52.164;21.244;2023-03-25T00:42:35;11.25;;;8.20;;
49854;SDS011;35752;52.164;21.244;2023-03-25T00:45:01;12.43;;;8.90;;
49854;SDS011;35752;52.164;21.244;2023-03-25T00:47:28;10.50;;;7.15;;
49854;SDS011;35752;52.164;21.244;2023-03-25T00:49:54;10.82;;;7.85;;
49854;SDS011;35752;52.164;21.244;2023-03-25T00:52:19;10.82;;;7.95;;
49854;SDS011;35752;52.164;21.244;2023-03-25T00:54:47;10.93;;;7.13;;
49854;SDS011;35752;52.164;21.244;2023-03-25T00:57:12;13.63;;;7.53;;
49854;SDS011;35752;52.164;21.244;2023-03-25T00:59:38;9.82;;;7.47;;
49854;SDS011;35752;52.164;21.244;2023-03-25T01:02:04;11.02;;;7.32;;
49854;SDS011;35752;52.164;21.244;2023-03-25T01:04:31;10.10;;;7.25;;
49854;SDS011;35752;52.164;21.244;2023-03-25T01:06:57;10.10;;;7.95;;
49854;SDS011;35752;52.164;21.244;2023-03-25T01:09:22;12.88;;;8.10;;
49854;SDS011;35752;52.164;21.244;2023-03-25T01:11:48;9.07;;;7.65;;
49854;SDS011;35752;52.164;21.244;2023-03-25T01:14:15;10.15;;;8.15;;
49854;SDS011;35752;52.164;21.244;2023-03-25T01:16:43;9.55;;;7.53;;
49854;SDS011;35752;52.164;21.244;2023-03-25T01:19:09;10.48;;;7.70;;
49854;SDS011;35752;52.164;21.244;2023-03-25T01:21:38;12.75;;;8.45;;
49854;SDS011;35752;52.164;21.244;2023-03-25T01:24:05;10.60;;;7.95;;
49854;SDS011;35752;52.164;21.244;2023-03-25T01:26:33;9.73;;;6.93;;
49854;SDS011;35752;52.164;21.244;2023-03-25T01:28:58;10.50;;;7.45;;
49854;SDS011;35752;52.164;21.244;2023-03-25T01:31:24;10.75;;;7.63;;
49854;SDS011;35752;52.164;21.244;2023-03-25T01:33:54;11.25;;;7.72;;
49854;SDS011;35752;52.164;21.244;2023-03-25T01:36:23;10.02;;;7.15;;
49854;SDS011;35752;52.164;21.244;2023-03-25T01:38:53;11.77;;;8.02;;
49854;SDS011;35752;52.164;21.244;2023-03-25T01:41:19;8.90;;;7.22;;
49854;SDS011;35752;52.164;21.244;2023-03-25T01:46:28;10.65;;;7.70;;
49854;SDS011;35752;52.164;21.244;2023-03-25T01:48:54;9.55;;;7.28;;
49854;SDS011;35752;52.164;21.244;2023-03-25T01:51:23;10.35;;;6.97;;
49854;SDS011;35752;52.164;21.244;2023-03-25T01:53:53;7.85;;;6.80;;
49854;SDS011;35752;52.164;21.244;2023-03-25T01:56:19;10.07;;;7.22;;
49854;SDS011;35752;52.164;21.244;2023-03-25T01:58:49;10.68;;;7.72;;
49854;SDS011;35752;52.164;21.244;2023-03-25T02:01:16;13.35;;;7.05;;
49854;SDS011;35752;52.164;21.244;2023-03-25T02:03:45;9.82;;;8.02;;
49854;SDS011;35752;52.164;21.244;2023-03-25T02:06:19;9.25;;;7.47;;
49854;SDS011;35752;52.164;21.244;2023-03-25T02:08:52;12.32;;;7.40;;
49854;SDS011;35752;52.164;21.244;2023-03-25T02:11:21;11.02;;;7.25;;
49854;SDS011;35752;52.164;21.244;2023-03-25T02:13:49;10.63;;;7.82;;
49854;SDS011;35752;52.164;21.244;2023-03-25T02:17:17;9.40;;;7.00;;
49854;SDS011;35752;52.164;21.244;2023-03-25T02:41:02;11.55;;;8.00;;
49854;SDS011;35752;52.164;21.244;2023-03-25T02:46:06;10.52;;;8.00;;
49854;SDS011;35752;52.164;21.244;2023-03-25T02:48:39;12.10;;;8.13;;
49854;SDS011;35752;52.164;21.244;2023-03-25T02:51:16;14.32;;;8.30;;
49854;SDS011;35752;52.164;21.244;2023-03-25T02:53:46;13.25;;;9.38;;
49854;SDS011;35752;52.164;21.244;2023-03-25T02:56:15;11.85;;;8.75;;
49854;SDS011;35752;52.164;21.244;2023-03-25T02:58:46;12.95;;;9.35;;
49854;SDS011;35752;52.164;21.244;2023-03-25T03:01:13;12.15;;;9.07;;
49854;SDS011;35752;52.164;21.244;2023-03-25T03:03:39;12.38;;;8.63;;
49854;SDS011;35752;52.164;21.244;2023-03-25T03:06:05;12.23;;;9.50;;
49854;SDS011;35752;52.164;21.244;2023-03-25T03:11:28;12.20;;;9.98;;
49854;SDS011;35752;52.164;21.244;2023-03-25T03:19:18;13.43;;;9.57;;
49854;SDS011;35752;52.164;21.244;2023-03-25T03:24:43;11.30;;;8.00;;
49854;SDS011;35752;52.164;21.244;2023-03-25T03:27:30;14.82;;;8.95;;
49854;SDS011;35752;52.164;21.244;2023-03-25T03:30:05;14.93;;;8.73;;
49854;SDS011;35752;52.164;21.244;2023-03-25T03:32:37;13.50;;;8.45;;
49854;SDS011;35752;52.164;21.244;2023-03-25T03:35:32;14.18;;;9.68;;
49854;SDS011;35752;52.164;21.244;2023-03-25T03:38:26;9.35;;;7.53;;
49854;SDS011;35752;52.164;21.244;2023-03-25T03:41:00;10.27;;;7.13;;
49854;SDS011;35752;52.164;21.244;2023-03-25T03:45:58;9.13;;;6.57;;
49854;SDS011;35752;52.164;21.244;2023-03-25T03:48:35;7.68;;;6.82;;
49854;SDS011;35752;52.164;21.244;2023-03-25T03:51:08;9.90;;;6.95;;
49854;SDS011;35752;52.164;21.244;2023-03-25T03:53:42;9.40;;;7.20;;
49854;SDS011;35752;52.164;21.244;2023-03-25T03:58:56;7.78;;;6.13;;
49854;SDS011;35752;52.164;21.244;2023-03-25T04:01:29;13.13;;;7.15;;
49854;SDS011;35752;52.164;21.244;2023-03-25T04:04:00;11.82;;;8.10;;
49854;SDS011;35752;52.164;21.244;2023-03-25T04:06:38;6.88;;;5.93;;
49854;SDS011;35752;52.164;21.244;2023-03-25T04:11:52;12.00;;;8.75;;
49854;SDS011;35752;52.164;21.244;2023-03-25T04:14:23;11.30;;;9.15;;
49854;SDS011;35752;52.164;21.244;2023-03-25T04:16:49;11.38;;;9.43;;
49854;SDS011;35752;52.164;21.244;2023-03-25T04:19:17;10.15;;;7.60;;
49854;SDS011;35752;52.164;21.244;2023-03-25T04:21:43;12.35;;;10.63;;
49854;SDS011;35752;52.164;21.244;2023-03-25T04:24:10;12.80;;;9.55;;
49854;SDS011;35752;52.164;21.244;2023-03-25T04:26:36;12.57;;;9.68;;
49854;SDS011;35752;52.164;21.244;2023-03-25T04:29:04;11.63;;;9.23;;
49854;SDS011;35752;52.164;21.244;2023-03-25T04:31:31;13.15;;;10.63;;
49854;SDS011;35752;52.164;21.244;2023-03-25T04:33:57;11.55;;;9.18;;
49854;SDS011;35752;52.164;21.244;2023-03-25T04:36:26;11.70;;;9.02;;
49854;SDS011;35752;52.164;21.244;2023-03-25T04:38:57;13.52;;;10.98;;
49854;SDS011;35752;52.164;21.244;2023-03-25T04:41:23;15.25;;;9.98;;
49854;SDS011;35752;52.164;21.244;2023-03-25T04:43:49;14.90;;;10.73;;
49854;SDS011;35752;52.164;21.244;2023-03-25T04:46:15;13.70;;;9.82;;
49854;SDS011;35752;52.164;21.244;2023-03-25T04:48:42;14.77;;;10.95;;
49854;SDS011;35752;52.164;21.244;2023-03-25T04:51:09;14.55;;;9.85;;
49854;SDS011;35752;52.164;21.244;2023-03-25T04:53:36;13.05;;;10.10;;
49854;SDS011;35752;52.164;21.244;2023-03-25T04:56:03;13.73;;;10.63;;
49854;SDS011;35752;52.164;21.244;2023-03-25T04:58:30;14.23;;;9.85;;
49854;SDS011;35752;52.164;21.244;2023-03-25T05:00:56;14.77;;;10.55;;
49854;SDS011;35752;52.164;21.244;2023-03-25T05:03:29;13.82;;;9.55;;
49854;SDS011;35752;52.164;21.244;2023-03-25T05:05:56;12.10;;;9.55;;
49854;SDS011;35752;52.164;21.244;2023-03-25T05:08:22;15.55;;;10.15;;
49854;SDS011;35752;52.164;21.244;2023-03-25T05:10:47;11.73;;;9.32;;
49854;SDS011;35752;52.164;21.244;2023-03-25T05:13:13;11.90;;;10.00;;
49854;SDS011;35752;52.164;21.244;2023-03-25T05:15:39;11.75;;;8.57;;
49854;SDS011;35752;52.164;21.244;2023-03-25T05:18:09;10.48;;;9.13;;
49854;SDS011;35752;52.164;21.244;2023-03-25T05:20:40;15.20;;;9.95;;
49854;SDS011;35752;52.164;21.244;2023-03-25T05:23:10;13.43;;;9.90;;
49854;SDS011;35752;52.164;21.244;2023-03-25T05:25:40;12.55;;;9.60;;
49854;SDS011;35752;52.164;21.244;2023-03-25T05:28:07;11.68;;;9.73;;
49854;SDS011;35752;52.164;21.244;2023-03-25T05:30:38;14.80;;;11.38;;
49854;SDS011;35752;52.164;21.244;2023-03-25T05:33:06;19.48;;;11.35;;
49854;SDS011;35752;52.164;21.244;2023-03-25T05:35:37;15.98;;;11.65;;
49854;SDS011;35752;52.164;21.244;2023-03-25T05:38:03;15.13;;;10.52;;
49854;SDS011;35752;52.164;21.244;2023-03-25T05:40:30;14.27;;;9.82;;
49854;SDS011;35752;52.164;21.244;2023-03-25T05:42:57;14.45;;;10.57;;
49854;SDS011;35752;52.164;21.244;2023-03-25T05:45:22;14.18;;;11.63;;
49854;SDS011;35752;52.164;21.244;2023-03-25T05:47:48;15.15;;;12.23;;
49854;SDS011;35752;52.164;21.244;2023-03-25T05:50:13;15.98;;;12.00;;
49854;SDS011;35752;52.164;21.244;2023-03-25T05:52:39;17.92;;;12.27;;
49854;SDS011;35752;52.164;21.244;2023-03-25T05:55:06;15.98;;;12.27;;
49854;SDS011;35752;52.164;21.244;2023-03-25T05:57:34;16.92;;;12.93;;
49854;SDS011;35752;52.164;21.244;2023-03-25T06:00:00;14.93;;;10.35;;
49854;SDS011;35752;52.164;21.244;2023-03-25T06:02:26;14.13;;;10.88;;
49854;SDS011;35752;52.164;21.244;2023-03-25T06:04:52;16.02;;;12.32;;
49854;SDS011;35752;52.164;21.244;2023-03-25T06:07:18;15.57;;;12.18;;
49854;SDS011;35752;52.164;21.244;2023-03-25T06:09:50;18.58;;;12.48;;
49854;SDS011;35752;52.164;21.244;2023-03-25T06:12:18;16.92;;;13.05;;
49854;SDS011;35752;52.164;21.244;2023-03-25T06:14:46;18.38;;;13.55;;
49854;SDS011;35752;52.164;21.244;2023-03-25T06:17:15;17.65;;;14.48;;
49854;SDS011;35752;52.164;21.244;2023-03-25T06:19:43;16.85;;;13.00;;
49854;SDS011;35752;52.164;21.244;2023-03-25T06:22:09;16.40;;;12.88;;
49854;SDS011;35752;52.164;21.244;2023-03-25T06:24:36;16.48;;;13.02;;
49854;SDS011;35752;52.164;21.244;2023-03-25T06:27:03;18.30;;;13.82;;
49854;SDS011;35752;52.164;21.244;2023-03-25T06:29:34;16.67;;;14.55;;
49854;SDS011;35752;52.164;21.244;2023-03-25T06:32:06;17.30;;;13.90;;
49854;SDS011;35752;52.164;21.244;2023-03-25T06:34:32;19.85;;;14.10;;
49854;SDS011;35752;52.164;21.244;2023-03-25T06:36:58;20.17;;;14.82;;
49854;SDS011;35752;52.164;21.244;2023-03-25T06:39:27;18.60;;;13.00;;
49854;SDS011;35752;52.164;21.244;2023-03-25T06:44:24;22.02;;;14.75;;
49854;SDS011;35752;52.164;21.244;2023-03-25T06:46:49;16.77;;;13.55;;
49854;SDS011;35752;52.164;21.244;2023-03-25T06:49:15;18.45;;;14.80;;
49854;SDS011;35752;52.164;21.244;2023-03-25T06:51:41;19.80;;;14.00;;
49854;SDS011;35752;52.164;21.244;2023-03-25T06:54:07;17.60;;;14.02;;
49854;SDS011;35752;52.164;21.244;2023-03-25T06:56:32;16.25;;;13.60;;
49854;SDS011;35752;52.164;21.244;2023-03-25T06:58:58;15.93;;;13.65;;
49854;SDS011;35752;52.164;21.244;2023-03-25T07:01:23;21.65;;;14.68;;
49854;SDS011;35752;52.164;21.244;2023-03-25T07:03:49;18.77;;;14.48;;
49854;SDS011;35752;52.164;21.244;2023-03-25T07:06:15;18.13;;;13.15;;
49854;SDS011;35752;52.164;21.244;2023-03-25T07:08:44;17.13;;;14.50;;
49854;SDS011;35752;52.164;21.244;2023-03-25T07:11:10;15.35;;;12.93;;
49854;SDS011;35752;52.164;21.244;2023-03-25T07:13:38;20.42;;;13.45;;
49854;SDS011;35752;52.164;21.244;2023-03-25T07:16:04;16.35;;;13.98;;
49854;SDS011;35752;52.164;21.244;2023-03-25T07:18:30;19.15;;;13.93;;
49854;SDS011;35752;52.164;21.244;2023-03-25T07:20:56;16.58;;;12.80;;
49854;SDS011;35752;52.164;21.244;2023-03-25T07:23:22;17.73;;;15.05;;
49854;SDS011;35752;52.164;21.244;2023-03-25T07:25:47;17.67;;;13.85;;
49854;SDS011;35752;52.164;21.244;2023-03-25T07:28:13;17.83;;;13.32;;
49854;SDS011;35752;52.164;21.244;2023-03-25T07:30:38;15.45;;;13.40;;
49854;SDS011;35752;52.164;21.244;2023-03-25T07:33:04;21.58;;;14.65;;
49854;SDS011;35752;52.164;21.244;2023-03-25T07:35:30;20.00;;;13.57;;
49854;SDS011;35752;52.164;21.244;2023-03-25T07:37:56;20.02;;;12.77;;
49854;SDS011;35752;52.164;21.244;2023-03-25T07:40:21;17.88;;;13.00;;
49854;SDS011;35752;52.164;21.244;2023-03-25T07:42:47;15.73;;;12.90;;
49854;SDS011;35752;52.164;21.244;2023-03-25T07:45:13;16.33;;;12.38;;
49854;SDS011;35752;52.164;21.244;2023-03-25T07:47:39;16.00;;;13.27;;
49854;SDS011;35752;52.164;21.244;2023-03-25T07:50:05;15.80;;;12.45;;
49854;SDS011;35752;52.164;21.244;2023-03-25T07:52:31;18.58;;;12.25;;
49854;SDS011;35752;52.164;21.244;2023-03-25T07:54:57;17.90;;;13.30;;
49854;SDS011;35752;52.164;21.244;2023-03-25T07:57:24;17.27;;;13.38;;
49854;SDS011;35752;52.164;21.244;2023-03-25T07:59:50;17.88;;;13.55;;
49854;SDS011;35752;52.164;21.244;2023-03-25T08:02:15;15.88;;;12.75;;
49854;SDS011;35752;52.164;21.244;2023-03-25T08:04:41;15.38;;;13.27;;
49854;SDS011;35752;52.164;21.244;2023-03-25T08:07:07;16.50;;;12.75;;
49854;SDS011;35752;52.164;21.244;2023-03-25T08:09:33;15.00;;;11.45;;
49854;SDS011;35752;52.164;21.244;2023-03-25T08:11:58;15.70;;;12.25;;
49854;SDS011;35752;52.164;21.244;2023-03-25T08:14:24;13.63;;;12.07;;
49854;SDS011;35752;52.164;21.244;2023-03-25T08:16:49;16.02;;;12.10;;
49854;SDS011;35752;52.164;21.244;2023-03-25T08:19:15;18.38;;;12.82;;
49854;SDS011;35752;52.164;21.244;2023-03-25T08:21:41;15.80;;;12.75;;
49854;SDS011;35752;52.164;21.244;2023-03-25T08:24:06;15.18;;;11.55;;
49854;SDS011;35752;52.164;21.244;2023-03-25T08:26:33;15.32;;;11.68;;
49854;SDS011;35752;52.164;21.244;2023-03-25T08:28:59;18.70;;;11.85;;
49854;SDS011;35752;52.164;21.244;2023-03-25T08:31:26;16.75;;;11.27;;
49854;SDS011;35752;52.164;21.244;2023-03-25T08:33:55;16.23;;;11.75;;
49854;SDS011;35752;52.164;21.244;2023-03-25T08:36:22;15.20;;;12.15;;
49854;SDS011;35752;52.164;21.244;2023-03-25T08:38:48;14.55;;;11.40;;
49854;SDS011;35752;52.164;21.244;2023-03-25T08:41:14;14.77;;;11.57;;
49854;SDS011;35752;52.164;21.244;2023-03-25T08:43:40;16.17;;;11.15;;
49854;SDS011;35752;52.164;21.244;2023-03-25T08:46:06;15.35;;;12.25;;
49854;SDS011;35752;52.164;21.244;2023-03-25T08:48:31;15.80;;;12.32;;
49854;SDS011;35752;52.164;21.244;2023-03-25T08:50:57;15.90;;;11.25;;
49854;SDS011;35752;52.164;21.244;2023-03-25T08:53:23;13.30;;;11.20;;
49854;SDS011;35752;52.164;21.244;2023-03-25T08:55:51;12.93;;;10.43;;
49854;SDS011;35752;52.164;21.244;2023-03-25T08:58:18;13.13;;;9.98;;
49854;SDS011;35752;52.164;21.244;2023-03-25T09:00:44;15.10;;;9.80;;
49854;SDS011;35752;52.164;21.244;2023-03-25T09:03:10;12.75;;;9.10;;
49854;SDS011;35752;52.164;21.244;2023-03-25T09:05:36;14.93;;;10.43;;
49854;SDS011;35752;52.164;21.244;2023-03-25T09:08:03;12.90;;;9.20;;
49854;SDS011;35752;52.164;21.244;2023-03-25T09:10:29;12.40;;;8.73;;
49854;SDS011;35752;52.164;21.244;2023-03-25T09:12:55;13.77;;;9.68;;
49854;SDS011;35752;52.164;21.244;2023-03-25T09:15:21;18.73;;;10.30;;
49854;SDS011;35752;52.164;21.244;2023-03-25T09:17:47;12.10;;;8.73;;
49854;SDS011;35752;52.164;21.244;2023-03-25T09:20:12;13.35;;;9.15;;
49854;SDS011;35752;52.164;21.244;2023-03-25T09:22:39;12.23;;;9.38;;
49854;SDS011;35752;52.164;21.244;2023-03-25T09:25:05;10.73;;;7.25;;
49854;SDS011;35752;52.164;21.244;2023-03-25T09:27:31;12.75;;;7.82;;
49854;SDS011;35752;52.164;21.244;2023-03-25T09:29:57;10.30;;;7.50;;
49854;SDS011;35752;52.164;21.244;2023-03-25T09:32:23;13.23;;;7.55;;
49854;SDS011;35752;52.164;21.244;2023-03-25T09:34:49;13.07;;;7.18;;
49854;SDS011;35752;52.164;21.244;2023-03-25T09:37:15;10.60;;;7.28;;
49854;SDS011;35752;52.164;21.244;2023-03-25T09:39:44;10.10;;;6.97;;
49854;SDS011;35752;52.164;21.244;2023-03-25T09:42:56;11.27;;;6.95;;
49854;SDS011;35752;52.164;21.244;2023-03-25T09:45:16;12.55;;;6.65;;
49854;SDS011;35752;52.164;21.244;2023-03-25T09:48:32;8.95;;;6.97;;
49854;SDS011;35752;52.164;21.244;2023-03-25T09:50:37;12.13;;;6.70;;
49854;SDS011;35752;52.164;21.244;2023-03-25T09:55:41;11.10;;;6.00;;
49854;SDS011;35752;52.164;21.244;2023-03-25T10:00:48;8.77;;;5.78;;
49854;SDS011;35752;52.164;21.244;2023-03-25T10:03:40;9.20;;;5.43;;
49854;SDS011;35752;52.164;21.244;2023-03-25T10:06:27;7.50;;;5.60;;
49854;SDS011;35752;52.164;21.244;2023-03-25T10:09:38;10.48;;;5.95;;
49854;SDS011;35752;52.164;21.244;2023-03-25T10:11:55;8.88;;;5.22;;
49854;SDS011;35752;52.164;21.244;2023-03-25T10:14:36;8.88;;;6.47;;
49854;SDS011;35752;52.164;21.244;2023-03-25T10:24:52;9.55;;;6.28;;
49854;SDS011;35752;52.164;21.244;2023-03-25T10:27:35;10.00;;;6.53;;
49854;SDS011;35752;52.164;21.244;2023-03-25T10:30:17;11.70;;;6.65;;
49854;SDS011;35752;52.164;21.244;2023-03-25T10:32:52;10.18;;;5.82;;
49854;SDS011;35752;52.164;21.244;2023-03-25T10:37:53;6.68;;;4.15;;
49854;SDS011;35752;52.164;21.244;2023-03-25T10:40:35;7.25;;;3.85;;
49854;SDS011;35752;52.164;21.244;2023-03-25T10:46:04;7.35;;;3.55;;
49854;SDS011;35752;52.164;21.244;2023-03-25T10:48:51;6.15;;;3.95;;
49854;SDS011;35752;52.164;21.244;2023-03-25T10:51:18;8.57;;;4.28;;
49854;SDS011;35752;52.164;21.244;2023-03-25T10:53:50;6.53;;;3.60;;
49854;SDS011;35752;52.164;21.244;2023-03-25T10:56:24;7.20;;;3.75;;
49854;SDS011;35752;52.164;21.244;2023-03-25T10:58:54;6.72;;;4.40;;
49854;SDS011;35752;52.164;21.244;2023-03-25T11:06:29;10.07;;;4.18;;
49854;SDS011;35752;52.164;21.244;2023-03-25T11:11:40;6.07;;;3.38;;
49854;SDS011;35752;52.164;21.244;2023-03-25T11:14:06;6.18;;;3.28;;
49854;SDS011;35752;52.164;21.244;2023-03-25T11:16:39;9.88;;;3.10;;
49854;SDS011;35752;52.164;21.244;2023-03-25T11:19:12;5.63;;;2.85;;
49854;SDS011;35752;52.164;21.244;2023-03-25T11:24:17;5.40;;;2.70;;
49854;SDS011;35752;52.164;21.244;2023-03-25T11:26:43;5.82;;;2.70;;
49854;SDS011;35752;52.164;21.244;2023-03-25T11:29:13;5.88;;;2.33;;
49854;SDS011;35752;52.164;21.244;2023-03-25T11:31:42;7.30;;;3.28;;
49854;SDS011;35752;52.164;21.244;2023-03-25T11:34:19;7.07;;;2.83;;
49854;SDS011;35752;52.164;21.244;2023-03-25T11:36:59;5.85;;;2.45;;
49854;SDS011;35752;52.164;21.244;2023-03-25T11:39:53;8.48;;;2.00;;
49854;SDS011;35752;52.164;21.244;2023-03-25T11:44:56;5.50;;;2.50;;
49854;SDS011;35752;52.164;21.244;2023-03-25T11:47:31;6.97;;;2.90;;
49854;SDS011;35752;52.164;21.244;2023-03-25T11:49:58;5.32;;;2.10;;
49854;SDS011;35752;52.164;21.244;2023-03-25T11:52:32;8.05;;;2.28;;
49854;SDS011;35752;52.164;21.244;2023-03-25T11:57:53;6.70;;;2.10;;
49854;SDS011;35752;52.164;21.244;2023-03-25T12:03:00;7.22;;;2.60;;
49854;SDS011;35752;52.164;21.244;2023-03-25T12:05:35;3.97;;;2.10;;
49854;SDS011;35752;52.164;21.244;2023-03-25T12:08:12;4.10;;;2.00;;
49854;SDS011;35752;52.164;21.244;2023-03-25T12:10:59;6.57;;;2.50;;
49854;SDS011;35752;52.164;21.244;2023-03-25T12:13:33;5.90;;;2.83;;
49854;SDS011;35752;52.164;21.244;2023-03-25T12:33:07;5.72;;;2.40;;
49854;SDS011;35752;52.164;21.244;2023-03-25T12:35:45;5.38;;;2.47;;
49854;SDS011;35752;52.164;21.244;2023-03-25T12:51:55;4.78;;;2.30;;
49854;SDS011;35752;52.164;21.244;2023-03-25T13:00:06;7.80;;;2.42;;
49854;SDS011;35752;52.164;21.244;2023-03-25T13:05:17;6.30;;;2.50;;
49854;SDS011;35752;52.164;21.244;2023-03-25T13:07:52;7.47;;;1.75;;
49854;SDS011;35752;52.164;21.244;2023-03-25T13:10:27;4.07;;;1.85;;
49854;SDS011;35752;52.164;21.244;2023-03-25T13:12:56;4.82;;;1.77;;
49854;SDS011;35752;52.164;21.244;2023-03-25T13:15:26;4.10;;;1.55;;
49854;SDS011;35752;52.164;21.244;2023-03-25T13:18:04;2.53;;;1.27;;
49854;SDS011;35752;52.164;21.244;2023-03-25T13:20:45;3.50;;;1.52;;
49854;SDS011;35752;52.164;21.244;2023-03-25T13:23:32;4.03;;;0.90;;
49854;SDS011;35752;52.164;21.244;2023-03-25T13:26:10;4.18;;;1.40;;
49854;SDS011;35752;52.164;21.244;2023-03-25T13:28:50;3.97;;;1.80;;
49854;SDS011;35752;52.164;21.244;2023-03-25T13:31:25;5.10;;;1.90;;
49854;SDS011;35752;52.164;21.244;2023-03-25T13:36:41;4.57;;;1.83;;
49854;SDS011;35752;52.164;21.244;2023-03-25T13:39:14;4.63;;;1.70;;
49854;SDS011;35752;52.164;21.244;2023-03-25T13:41:51;3.38;;;1.13;;
49854;SDS011;35752;52.164;21.244;2023-03-25T13:44:25;3.55;;;1.70;;
49854;SDS011;35752;52.164;21.244;2023-03-25T13:52:17;4.00;;;1.77;;
49854;SDS011;35752;52.164;21.244;2023-03-25T13:54:54;6.22;;;2.28;;
49854;SDS011;35752;52.164;21.244;2023-03-25T14:00:23;6.97;;;2.28;;
49854;SDS011;35752;52.164;21.244;2023-03-25T14:03:23;5.68;;;2.20;;
49854;SDS011;35752;52.164;21.244;2023-03-25T14:06:04;6.32;;;2.95;;
49854;SDS011;35752;52.164;21.244;2023-03-25T14:14:18;8.27;;;3.65;;
49854;SDS011;35752;52.164;21.244;2023-03-25T14:16:48;6.10;;;2.78;;
49854;SDS011;35752;52.164;21.244;2023-03-25T14:19:29;5.03;;;2.25;;
49854;SDS011;35752;52.164;21.244;2023-03-25T14:21:58;5.03;;;2.22;;
49854;SDS011;35752;52.164;21.244;2023-03-25T14:24:34;6.68;;;3.00;;
49854;SDS011;35752;52.164;21.244;2023-03-25T14:27:16;6.93;;;3.05;;
49854;SDS011;35752;52.164;21.244;2023-03-25T14:32:46;4.47;;;2.50;;
49854;SDS011;35752;52.164;21.244;2023-03-25T14:43:24;6.97;;;3.47;;
49854;SDS011;35752;52.164;21.244;2023-03-25T14:46:13;9.88;;;3.55;;
49854;SDS011;35752;52.164;21.244;2023-03-25T14:48:53;6.47;;;3.33;;
49854;SDS011;35752;52.164;21.244;2023-03-25T14:51:43;7.43;;;3.78;;
49854;SDS011;35752;52.164;21.244;2023-03-25T14:54:17;6.75;;;3.97;;
49854;SDS011;35752;52.164;21.244;2023-03-25T14:56:55;7.20;;;3.53;;
49854;SDS011;35752;52.164;21.244;2023-03-25T14:59:27;6.38;;;3.83;;
49854;SDS011;35752;52.164;21.244;2023-03-25T15:02:02;11.63;;;4.75;;
49854;SDS011;35752;52.164;21.244;2023-03-25T15:04:41;7.68;;;3.97;;
49854;SDS011;35752;52.164;21.244;2023-03-25T15:07:11;7.85;;;3.85;;
49854;SDS011;35752;52.164;21.244;2023-03-25T15:09:59;7.93;;;4.80;;
49854;SDS011;35752;52.164;21.244;2023-03-25T15:12:25;12.00;;;4.68;;
49854;SDS011;35752;52.164;21.244;2023-03-25T15:14:55;12.30;;;4.68;;
49854;SDS011;35752;52.164;21.244;2023-03-25T15:17:43;7.70;;;4.25;;
49854;SDS011;35752;52.164;21.244;2023-03-25T15:20:11;8.88;;;4.53;;
49854;SDS011;35752;52.164;21.244;2023-03-25T15:25:46;6.30;;;1.30;;
49854;SDS011;35752;52.164;21.244;2023-03-25T15:28:21;3.13;;;1.10;;
49854;SDS011;35752;52.164;21.244;2023-03-25T15:31:16;2.35;;;0.73;;
49854;SDS011;35752;52.164;21.244;2023-03-25T15:39:13;1.10;;;0.52;;
49854;SDS011;35752;52.164;21.244;2023-03-25T15:47:09;2.63;;;0.90;;
49854;SDS011;35752;52.164;21.244;2023-03-25T15:58:10;1.48;;;0.68;;
49854;SDS011;35752;52.164;21.244;2023-03-25T16:00:46;2.35;;;0.98;;
49854;SDS011;35752;52.164;21.244;2023-03-25T16:03:19;1.17;;;0.75;;
49854;SDS011;35752;52.164;21.244;2023-03-25T16:05:50;1.85;;;0.88;;
49854;SDS011;35752;52.164;21.244;2023-03-25T16:08:26;1.42;;;0.90;;
49854;SDS011;35752;52.164;21.244;2023-03-25T16:10:55;2.28;;;1.30;;
49854;SDS011;35752;52.164;21.244;2023-03-25T16:13:21;2.42;;;0.90;;
49854;SDS011;35752;52.164;21.244;2023-03-25T16:15:48;1.92;;;1.10;;
49854;SDS011;35752;52.164;21.244;2023-03-25T16:18:16;3.78;;;1.30;;
49854;SDS011;35752;52.164;21.244;2023-03-25T16:20:43;1.98;;;0.95;;
49854;SDS011;35752;52.164;21.244;2023-03-25T16:23:18;1.92;;;1.13;;
49854;SDS011;35752;52.164;21.244;2023-03-25T16:25:46;2.45;;;1.25;;
49854;SDS011;35752;52.164;21.244;2023-03-25T16:28:15;2.65;;;1.30;;
49854;SDS011;35752;52.164;21.244;2023-03-25T16:30:51;2.15;;;1.23;;
49854;SDS011;35752;52.164;21.244;2023-03-25T16:33:18;2.28;;;1.02;;
49854;SDS011;35752;52.164;21.244;2023-03-25T16:35:53;4.00;;;1.17;;
49854;SDS011;35752;52.164;21.244;2023-03-25T16:40:46;3.55;;;1.05;;
49854;SDS011;35752;52.164;21.244;2023-03-25T16:45:44;2.92;;;1.63;;
49854;SDS011;35752;52.164;21.244;2023-03-25T16:48:12;2.28;;;1.38;;
49854;SDS011;35752;52.164;21.244;2023-03-25T16:50:41;2.72;;;1.25;;
49854;SDS011;35752;52.164;21.244;2023-03-25T16:53:09;2.78;;;1.60;;
49854;SDS011;35752;52.164;21.244;2023-03-25T16:55:48;1.73;;;1.35;;
49854;SDS011;35752;52.164;21.244;2023-03-25T16:58:20;2.30;;;1.50;;
49854;SDS011;35752;52.164;21.244;2023-03-25T17:00:49;2.80;;;1.40;;
49854;SDS011;35752;52.164;21.244;2023-03-25T17:03:18;2.20;;;1.40;;
49854;SDS011;35752;52.164;21.244;2023-03-25T17:08:47;2.00;;;1.70;;
49854;SDS011;35752;52.164;21.244;2023-03-25T17:11:14;1.52;;;1.42;;
49854;SDS011;35752;52.164;21.244;2023-03-25T17:13:45;2.08;;;1.40;;
49854;SDS011;35752;52.164;21.244;2023-03-25T17:16:15;2.35;;;1.70;;
49854;SDS011;35752;52.164;21.244;2023-03-25T17:18:41;2.67;;;2.10;;
49854;SDS011;35752;52.164;21.244;2023-03-25T17:21:08;2.53;;;2.03;;
49854;SDS011;35752;52.164;21.244;2023-03-25T17:23:42;3.53;;;2.78;;
49854;SDS011;35752;52.164;21.244;2023-03-25T17:26:10;2.70;;;2.42;;
49854;SDS011;35752;52.164;21.244;2023-03-25T17:28:39;3.70;;;2.90;;
49854;SDS011;35752;52.164;21.244;2023-03-25T17:36:37;4.72;;;3.13;;
49854;SDS011;35752;52.164;21.244;2023-03-25T17:39:06;4.43;;;3.20;;
49854;SDS011;35752;52.164;21.244;2023-03-25T17:41:42;4.88;;;3.97;;
49854;SDS011;35752;52.164;21.244;2023-03-25T17:44:09;7.22;;;4.43;;
49854;SDS011;35752;52.164;21.244;2023-03-25T17:46:39;7.20;;;4.78;;
49854;SDS011;35752;52.164;21.244;2023-03-25T17:49:10;8.82;;;5.40;;
49854;SDS011;35752;52.164;21.244;2023-03-25T17:51:40;7.32;;;5.90;;